Capt. Vic — WCY4427 — position and weather

sailwx.info

Track history (hours):
 
Tides and Currents Weather Stations Pressure Air Temp Water Temp Dewpoint Dewpoint Depression Visibility Wind Speed Wind Dir Waves Ship Positions

Capt. Vic

Owner: Love City Car Ferries, Inc., St. Thomas, VI. More information available from US FCC via Universal Licensing System and Coast Guard Vessel Documentation Center.

Last reported at 2017-Dec-09 21:33 UTC. Time now 2017-Dec-18 07:09 UTC.
Position N 18°20' W 064°48'.
Warning: this ship's position is 8 days out of date.

Length 36 m; draft 2.5 m.

Type: Ship. MMSI: 338457000.

Date/timePositionNaut miles runAvg speedWind from/ knotsBaromVisibWave heightAir tempDewpointWater temp
2017-Dec-09 21:33N 18°20' W 064°48'1 9.1
2017-Dec-09 21:29N 18°20' W 064°48'2 4.8
2017-Dec-09 21:00N 18°20' W 064°51'1 1.6
2017-Dec-09 20:31N 18°20' W 064°50'2 4.7
2017-Dec-09 20:00N 18°20' W 064°48'0 0.8
2017-Dec-09 19:30N 18°19' W 064°48'3 5.8
2017-Dec-09 19:00N 18°20' W 064°51'1 1.7
2017-Dec-09 18:30N 18°20' W 064°50'2 4.5
2017-Dec-09 18:00N 18°20' W 064°48'1 1.6
2017-Dec-09 17:30N 18°19' W 064°48'2 4.7
2017-Dec-09 17:00N 18°20' W 064°51'1 2.9
2017-Dec-09 16:30N 18°20' W 064°49'2 3.1
2017-Dec-09 15:59N 18°20' W 064°48'  
2017-Dec-03 18:16N 18°20' W 064°49'1 4.3
2017-Dec-03 18:00N 18°20' W 064°48'1 1.4
2017-Dec-03 17:31N 18°19' W 064°48'2 4.8
2017-Dec-03 17:01N 18°20' W 064°51'0 0.0
2017-Dec-03 16:31N 18°20' W 064°51'3 6.2
2017-Dec-03 16:01N 18°20' W 064°48'0 0.1
2017-Dec-03 15:31N 18°20' W 064°48'3 6.1
2017-Dec-03 15:01N 18°20' W 064°51'3 5.0
2017-Dec-03 14:31N 18°19' W 064°48'1 1.3
2017-Dec-03 14:00N 18°20' W 064°48'3 6.2
2017-Dec-03 13:30N 18°20' W 064°51'0 0.0
2017-Dec-03 13:00N 18°20' W 064°51'3 5.7
2017-Dec-03 12:30N 18°19' W 064°48'0 0.0
2017-Dec-02 21:45N 18°20' W 064°48'1 3.0
2017-Dec-02 21:30N 18°19' W 064°48'2 5.1
2017-Dec-02 21:01N 18°20' W 064°51'2 4.5
2017-Dec-02 20:31N 18°19' W 064°49'0 0.1
2017-Dec-02 20:01N 18°19' W 064°49'2 4.5
2017-Dec-02 19:30N 18°20' W 064°51'0 0.0
2017-Dec-02 19:01N 18°20' W 064°51'1 2.4
2017-Dec-02 18:30N 18°20' W 064°50'2 3.8
2017-Dec-02 18:01N 18°20' W 064°48'0 0.2
2017-Dec-02 17:30N 18°20' W 064°48'3 6.1
2017-Dec-02 17:01N 18°20' W 064°51'0 0.0
2017-Dec-02 16:30N 18°20' W 064°51'0 0.2
2017-Dec-02 16:01N 18°20' W 064°51'3 6.1
2017-Dec-02 15:30N 18°20' W 064°48'  
Track history (hours):
 
Tides and Currents Weather Stations Pressure Air Temp Water Temp Dewpoint Dewpoint Depression Visibility Wind Speed Wind Dir Waves Ship Positions

Capt. Vic

Owner: Love City Car Ferries, Inc., St. Thomas, VI. More information available from US FCC via Universal Licensing System and Coast Guard Vessel Documentation Center.

Last reported at 2017-Dec-09 21:33 UTC. Time now 2017-Dec-18 07:09 UTC.
Position N 18°20' W 064°48'.
Warning: this ship's position is 8 days out of date.

Length 36 m; draft 2.5 m.

Type: Ship. MMSI: 338457000.

Date/timePositionNaut miles runAvg speedWind from/ knotsBaromVisibWave heightAir tempDewpointWater temp
2017-Dec-09 21:33N 18°20' W 064°48'1 9.1
2017-Dec-09 21:29N 18°20' W 064°48'2 4.8
2017-Dec-09 21:00N 18°20' W 064°51'1 1.6
2017-Dec-09 20:31N 18°20' W 064°50'2 4.7
2017-Dec-09 20:00N 18°20' W 064°48'0 0.8
2017-Dec-09 19:30N 18°19' W 064°48'3 5.8
2017-Dec-09 19:00N 18°20' W 064°51'1 1.7
2017-Dec-09 18:30N 18°20' W 064°50'2 4.5
2017-Dec-09 18:00N 18°20' W 064°48'1 1.6
2017-Dec-09 17:30N 18°19' W 064°48'2 4.7
2017-Dec-09 17:00N 18°20' W 064°51'1 2.9
2017-Dec-09 16:30N 18°20' W 064°49'2 3.1
2017-Dec-09 15:59N 18°20' W 064°48'  
2017-Dec-03 18:16N 18°20' W 064°49'1 4.3
2017-Dec-03 18:00N 18°20' W 064°48'1 1.4
2017-Dec-03 17:31N 18°19' W 064°48'2 4.8
2017-Dec-03 17:01N 18°20' W 064°51'0 0.0
2017-Dec-03 16:31N 18°20' W 064°51'3 6.2
2017-Dec-03 16:01N 18°20' W 064°48'0 0.1
2017-Dec-03 15:31N 18°20' W 064°48'3 6.1
2017-Dec-03 15:01N 18°20' W 064°51'3 5.0
2017-Dec-03 14:31N 18°19' W 064°48'1 1.3
2017-Dec-03 14:00N 18°20' W 064°48'3 6.2
2017-Dec-03 13:30N 18°20' W 064°51'0 0.0
2017-Dec-03 13:00N 18°20' W 064°51'3 5.7
2017-Dec-03 12:30N 18°19' W 064°48'0 0.0
2017-Dec-02 21:45N 18°20' W 064°48'1 3.0
2017-Dec-02 21:30N 18°19' W 064°48'2 5.1
2017-Dec-02 21:01N 18°20' W 064°51'2 4.5
2017-Dec-02 20:31N 18°19' W 064°49'0 0.1
2017-Dec-02 20:01N 18°19' W 064°49'2 4.5
2017-Dec-02 19:30N 18°20' W 064°51'0 0.0
2017-Dec-02 19:01N 18°20' W 064°51'1 2.4
2017-Dec-02 18:30N 18°20' W 064°50'2 3.8
2017-Dec-02 18:01N 18°20' W 064°48'0 0.2
2017-Dec-02 17:30N 18°20' W 064°48'3 6.1
2017-Dec-02 17:01N 18°20' W 064°51'0 0.0
2017-Dec-02 16:30N 18°20' W 064°51'0 0.2
2017-Dec-02 16:01N 18°20' W 064°51'3 6.1
2017-Dec-02 15:30N 18°20' W 064°48'  

Dump ship's entire track history